Time;durP1;ratioP1;P1;durP2;ratioP2;P2;SDS_P1;SDS_P2;PMS_P1;PMS_P2;Temp;Humidity;BMP_temperature;BMP_pressure;BME280_temperature;BME280_humidity;BME280_pressure;Samples;Min_cycle;Max_cycle;Signal;HPM_P1;HPM_P2
2022/09/30 00:01:08;;;;;;;0.60;0.60;;;;;;;7.62;96.68;99036.34;4935992;29;20090;-84
2022/09/30 00:03:38;;;;;;;0.60;0.60;;;;;;;7.58;96.67;99032.50;4935600;29;20511;-84
2022/09/30 00:06:08;;;;;;;0.50;0.50;;;;;;;7.55;96.84;99041.81;4950292;29;20146;-83
2022/09/30 00:08:36;;;;;;;0.60;0.60;;;;;;;7.53;96.99;99041.22;4935659;29;20529;-83
2022/09/30 00:11:15;;;;;;;0.60;0.60;;;;;;;7.52;97.06;99046.81;4935798;29;20057;-83
2022/09/30 00:13:44;;;;;;;0.60;0.60;;;;;;;7.50;97.14;99049.72;4935617;29;20423;-83
2022/09/30 00:16:12;;;;;;;0.50;0.50;;;;;;;7.49;97.05;99047.25;4935509;29;20055;-84
2022/09/30 00:18:41;;;;;;;0.50;0.50;;;;;;;7.49;97.36;99058.00;4950712;29;20142;-83
2022/09/30 00:21:10;;;;;;;0.50;0.50;;;;;;;7.51;97.41;99055.91;4950709;29;20466;-82
2022/09/30 00:23:39;;;;;;;0.60;0.60;;;;;;;7.53;97.51;99056.53;4936041;29;20331;-83
2022/09/30 00:26:11;;;;;;;0.50;0.50;;;;;;;7.53;97.20;99057.34;4950508;29;20052;-84
2022/09/30 00:28:39;;;;;;;0.60;0.60;;;;;;;7.48;97.14;99054.50;4935365;29;20059;-83
2022/09/30 00:31:10;;;;;;;0.60;0.60;;;;;;;7.45;97.36;99056.81;4935119;29;20499;-83
2022/09/30 00:33:39;;;;;;;0.52;0.52;;;;;;;7.46;97.43;99066.50;4935081;29;20102;-83
2022/09/30 00:36:06;;;;;;;0.55;0.55;;;;;;;7.42;97.43;99054.56;4935477;29;20434;-84
2022/09/30 00:38:33;;;;;;;0.50;0.50;;;;;;;7.42;97.66;99057.25;4935380;29;20047;-84
2022/09/30 00:41:02;;;;;;;0.60;0.60;;;;;;;7.41;97.60;99059.09;4965880;28;20400;-84
2022/09/30 00:43:50;;;;;;;0.50;0.50;;;;;;;7.40;97.55;99064.72;4956313;28;20552;-83
2022/09/30 00:46:26;;;;;;;0.60;0.60;;;;;;;7.36;97.81;99069.69;4973819;28;20066;-83
2022/09/30 00:48:56;;;;;;;0.60;0.60;;;;;;;7.36;97.54;99069.69;4972490;28;20066;-83
2022/09/30 00:51:28;;;;;;;0.60;0.60;;;;;;;7.41;97.47;99063.66;4973290;28;20053;-83
2022/09/30 00:53:58;;;;;;;0.50;0.50;;;;;;;7.37;97.34;99060.63;4973069;28;20112;-83
2022/09/30 00:56:28;;;;;;;0.60;0.60;;;;;;;7.36;97.45;99065.13;4973634;28;20077;-82
2022/09/30 00:59:09;;;;;;;0.60;0.60;;;;;;;7.33;97.41;99060.22;4973018;28;20058;-83
2022/09/30 01:01:39;;;;;;;0.60;0.60;;;;;;;7.29;97.54;99064.41;4955861;28;20058;-83
2022/09/30 01:04:19;;;;;;;0.60;0.60;;;;;;;7.29;97.77;99068.94;4955765;28;20403;-83
2022/09/30 01:06:46;;;;;;;0.50;0.50;;;;;;;7.21;97.92;99070.03;4955746;28;20103;-83
2022/09/30 01:09:14;;;;;;;0.50;0.50;;;;;;;7.21;97.94;99064.66;4955720;28;20536;-84
2022/09/30 01:11:41;;;;;;;0.57;0.57;;;;;;;7.16;98.28;99065.34;4973493;28;20075;-83
2022/09/30 01:14:12;;;;;;;0.60;0.60;;;;;;;7.16;98.70;99061.84;4977532;28;20055;-82
2022/09/30 01:17:24;;;;;;;0.60;0.60;;;;;;;7.14;98.68;99055.84;4958632;28;20150;-81
2022/09/30 01:20:21;;;;;;;0.60;0.60;;;;;;;7.14;98.77;99066.59;4964538;28;20898;-83
2022/09/30 01:23:10;;;;;;;0.50;0.50;;;;;;;7.14;98.37;99070.13;4955600;28;20055;-83
2022/09/30 01:25:47;;;;;;;0.50;0.50;;;;;;;7.15;98.61;99073.63;4955373;28;20137;-83
2022/09/30 01:28:32;;;;;;;0.60;0.60;;;;;;;7.18;98.62;99069.69;4973274;28;20058;-83
2022/09/30 01:31:02;;;;;;;0.60;0.60;;;;;;;7.13;98.50;99076.50;4972962;28;20534;-83
2022/09/30 01:34:00;;;;;;;0.60;0.60;;;;;;;7.11;98.37;99077.78;4972931;28;20173;-84
2022/09/30 01:36:58;;;;;;;0.50;0.50;;;;;;;7.06;98.57;99074.94;4955319;28;20141;-83
2022/09/30 01:40:07;;;;;;;0.60;0.60;;;;;;;7.01;98.68;99078.25;4972413;28;20079;-83
2022/09/30 01:43:10;;;;;;;0.60;0.60;;;;;;;6.93;98.73;99084.72;4893692;29;20049;-83
2022/09/30 01:46:10;;;;;;;0.70;0.70;;;;;;;6.83;99.01;99070.97;4893862;29;20418;-83
2022/09/30 01:48:46;;;;;;;0.60;0.60;;;;;;;6.80;99.64;99068.75;4887594;29;20139;-83
2022/09/30 01:51:43;;;;;;;0.60;0.60;;;;;;;6.84;99.91;99075.34;4893816;29;20056;-83
2022/09/30 01:54:21;;;;;;;0.60;0.60;;;;;;;6.93;99.80;99071.31;4887554;29;20056;-83
2022/09/30 01:57:10;;;;;;;0.63;0.63;;;;;;;7.00;99.59;99067.78;4893605;29;20139;-83
2022/09/30 01:59:46;;;;;;;0.60;0.60;;;;;;;6.98;99.44;99061.78;4894197;29;20076;-83
2022/09/30 02:02:19;;;;;;;0.63;0.63;;;;;;;6.89;98.92;99062.06;4897817;29;20093;-83
2022/09/30 02:05:02;;;;;;;0.70;0.70;;;;;;;6.83;99.52;99062.94;4898053;29;20149;-84
2022/09/30 02:07:39;;;;;;;0.60;0.60;;;;;;;6.81;99.50;99067.72;4897858;29;20293;-84
2022/09/30 02:10:26;;;;;;;0.60;0.60;;;;;;;6.76;99.64;99074.75;4912981;29;20057;-83
2022/09/30 02:13:04;;;;;;;0.70;0.70;;;;;;;6.69;99.93;99074.81;4919510;28;20058;-83
2022/09/30 02:15:35;;;;;;;0.60;0.60;;;;;;;6.66;100.00;99064.50;4959274;28;20051;-83
2022/09/30 02:18:41;;;;;;;0.60;0.60;;;;;;;6.69;100.00;99080.19;4960089;28;20047;-83
2022/09/30 02:21:09;;;;;;;0.60;0.60;;;;;;;6.65;100.00;99077.09;4959062;28;20061;-83
2022/09/30 02:23:40;;;;;;;0.60;0.60;;;;;;;6.66;100.00;99083.28;4958763;28;20073;-83
2022/09/30 02:26:14;;;;;;;0.60;0.60;;;;;;;6.68;100.00;99062.44;4959248;28;20058;-83
2022/09/30 02:28:44;;;;;;;0.60;0.60;;;;;;;6.82;100.00;99069.34;4958695;28;20050;-84
2022/09/30 02:31:14;;;;;;;0.60;0.60;;;;;;;6.90;100.00;99058.34;4958834;28;20051;-83
2022/09/30 02:33:47;;;;;;;0.60;0.60;;;;;;;7.00;99.93;99054.34;4975718;28;20050;-83
2022/09/30 02:36:16;;;;;;;0.70;0.70;;;;;;;7.08;99.61;99052.19;4959038;28;20109;-82
2022/09/30 02:38:45;;;;;;;0.70;0.70;;;;;;;7.17;99.10;99055.44;4958932;28;20047;-83
2022/09/30 02:41:22;;;;;;;0.60;0.60;;;;;;;7.26;98.56;99064.00;4958279;28;20063;-83
2022/09/30 02:43:51;;;;;;;0.60;0.60;;;;;;;7.29;98.08;99064.41;4975341;28;20055;-82
2022/09/30 02:46:26;;;;;;;0.60;0.60;;;;;;;7.33;97.66;99064.78;4975901;28;20055;-83
2022/09/30 02:49:12;;;;;;;0.60;0.60;;;;;;;7.36;97.54;99058.97;4958202;28;20051;-82
2022/09/30 02:52:14;;;;;;;0.60;0.60;;;;;;;7.36;97.43;99062.47;4974541;28;20054;-82
2022/09/30 02:54:44;;;;;;;0.60;0.60;;;;;;;7.34;97.00;99078.00;4974527;28;20046;-82
2022/09/30 02:57:26;;;;;;;0.60;0.60;;;;;;;7.36;96.95;99070.50;4975455;28;20057;-83
2022/09/30 02:59:54;;;;;;;0.70;0.70;;;;;;;7.33;96.80;99070.16;4957815;28;20133;-83
2022/09/30 03:02:22;;;;;;;0.50;0.50;;;;;;;7.34;96.68;99066.41;4975616;28;20061;-83
2022/09/30 03:04:50;;;;;;;0.60;0.60;;;;;;;7.31;96.92;99077.59;4958168;28;20105;-83
2022/09/30 03:07:17;;;;;;;0.60;0.60;;;;;;;7.29;97.03;99080.53;4975390;28;20105;-84
2022/09/30 03:09:44;;;;;;;0.60;0.60;;;;;;;7.26;96.81;99080.94;4958162;28;20465;-83
2022/09/30 03:12:33;;;;;;;0.60;0.60;;;;;;;7.29;97.28;99077.84;4974250;28;20134;-84
2022/09/30 03:15:14;;;;;;;0.60;0.60;;;;;;;7.26;97.20;99085.50;4958476;28;20055;-83
2022/09/30 03:18:10;;;;;;;0.60;0.60;;;;;;;7.27;97.07;99087.97;4957501;28;20632;-83
2022/09/30 03:20:49;;;;;;;0.60;0.60;;;;;;;7.27;96.87;99092.53;4958162;28;20059;-82
2022/09/30 03:23:38;;;;;;;0.60;0.60;;;;;;;7.24;96.76;99091.09;4975407;28;20153;-83
2022/09/30 03:26:27;;;;;;;0.60;0.60;;;;;;;7.20;96.76;99081.84;4980983;28;20442;-84
2022/09/30 03:29:10;;;;;;;0.60;0.60;;;;;;;7.17;96.75;99087.66;4976915;28;20633;-83
2022/09/30 03:31:40;;;;;;;0.60;0.60;;;;;;;7.09;96.74;99088.75;4975356;28;20130;-84
2022/09/30 03:34:28;;;;;;;0.60;0.60;;;;;;;7.03;97.10;99086.94;4957574;28;20058;-82
2022/09/30 03:37:05;;;;;;;0.60;0.60;;;;;;;7.04;97.04;99093.94;4974640;28;20322;-84
2022/09/30 03:39:55;;;;;;;0.60;0.60;;;;;;;7.09;97.04;99095.94;4957895;28;20470;-83
2022/09/30 03:42:31;;;;;;;0.60;0.60;;;;;;;7.02;96.88;99096.03;4957243;28;20046;-83
2022/09/30 03:45:07;;;;;;;0.60;0.60;;;;;;;7.00;97.16;99092.75;4956778;28;20554;-83
2022/09/30 03:47:39;;;;;;;0.60;0.60;;;;;;;7.01;97.36;99089.00;4974832;28;20051;-84
2022/09/30 03:50:08;;;;;;;0.60;0.60;;;;;;;7.05;97.13;99090.22;4941623;28;20046;-84
2022/09/30 03:52:36;;;;;;;0.60;0.60;;;;;;;7.10;96.82;99081.50;4957195;28;20042;-84
2022/09/30 03:55:05;;;;;;;0.70;0.70;;;;;;;7.11;96.74;99072.41;4988818;28;20057;-84
2022/09/30 03:57:31;;;;;;;0.60;0.60;;;;;;;7.14;96.38;99078.16;4974367;28;20047;-84
2022/09/30 03:59:59;;;;;;;0.60;0.60;;;;;;;7.18;96.25;99070.50;4974983;28;20077;-83
2022/09/30 04:02:26;;;;;;;0.60;0.60;;;;;;;7.24;96.07;99076.84;4981206;28;20105;-83
2022/09/30 04:04:53;;;;;;;0.60;0.60;;;;;;;7.31;96.02;99082.97;4993518;28;20050;-84
2022/09/30 04:07:21;;;;;;;0.65;0.65;;;;;;;7.42;95.19;99084.09;4993522;28;20077;-83
2022/09/30 04:09:48;;;;;;;0.60;0.60;;;;;;;7.49;94.89;99076.78;4992392;28;20406;-84
2022/09/30 04:12:15;;;;;;;0.70;0.70;;;;;;;7.54;94.50;99082.31;4984827;28;20494;-83
2022/09/30 04:14:42;;;;;;;0.60;0.60;;;;;;;7.58;94.18;99083.53;4974549;28;20039;-84
2022/09/30 04:17:09;;;;;;;0.60;0.60;;;;;;;7.66;93.72;99087.78;4980314;28;20402;-84
2022/09/30 04:19:38;;;;;;;0.60;0.60;;;;;;;7.73;93.18;99086.66;4992648;28;20074;-83
2022/09/30 04:22:07;;;;;;;0.60;0.60;;;;;;;7.78;92.17;99088.69;4974540;28;20046;-84
2022/09/30 04:24:34;;;;;;;0.60;0.60;;;;;;;7.81;92.01;99085.53;4978115;28;20142;-83
2022/09/30 04:27:02;;;;;;;0.60;0.60;;;;;;;7.88;91.63;99088.16;4940350;28;20050;-83
2022/09/30 04:29:30;;;;;;;0.60;0.60;;;;;;;7.92;91.26;99083.97;4972126;28;20093;-86
2022/09/30 04:31:58;;;;;;;0.60;0.60;;;;;;;7.94;91.29;99076.50;4973318;28;20050;-88
2022/09/30 04:34:25;;;;;;;0.60;0.60;;;;;;;8.00;90.86;99080.97;4973846;28;20042;-84
2022/09/30 04:36:52;;;;;;;0.60;0.60;;;;;;;8.03;90.42;99073.28;4972568;28;20074;-84
2022/09/30 04:39:19;;;;;;;0.60;0.60;;;;;;;8.09;90.46;99065.34;4972204;28;20565;-85
2022/09/30 04:41:45;;;;;;;0.60;0.60;;;;;;;8.12;89.46;99078.34;4972530;28;20131;-85
2022/09/30 04:44:12;;;;;;;0.50;0.50;;;;;;;8.16;89.34;99066.91;4981870;28;20061;-84
2022/09/30 04:46:39;;;;;;;0.60;0.60;;;;;;;8.23;89.31;99081.09;4971788;28;20043;-84
2022/09/30 04:49:07;;;;;;;0.50;0.50;;;;;;;8.29;89.27;99083.91;4981511;28;20074;-82
2022/09/30 04:51:35;;;;;;;0.60;0.60;;;;;;;8.32;88.94;99086.16;4973908;28;20050;-84
2022/09/30 04:54:02;;;;;;;0.60;0.60;;;;;;;8.32;88.74;99084.28;4972877;28;20047;-86
2022/09/30 04:56:29;;;;;;;0.60;0.60;;;;;;;8.37;88.48;99099.72;4626856;28;10000248;-81
2022/09/30 04:58:56;;;;;;;0.60;0.60;;;;;;;8.39;88.27;99097.63;4969232;28;20055;-85
2022/09/30 05:01:24;;;;;;;0.60;0.60;;;;;;;8.38;88.27;99104.88;4968868;28;20149;-83
2022/09/30 05:03:51;;;;;;;0.70;0.70;;;;;;;8.42;88.11;99094.50;4970519;28;20146;-85
2022/09/30 05:06:18;;;;;;;0.60;0.60;;;;;;;8.46;87.63;99096.53;4959656;28;20150;-84
2022/09/30 05:08:45;;;;;;;0.60;0.60;;;;;;;8.47;87.44;99097.34;4973672;28;20125;-85
2022/09/30 05:11:16;;;;;;;0.60;0.60;;;;;;;8.52;87.39;99100.16;4973137;28;20525;-83
2022/09/30 05:13:44;;;;;;;0.60;0.60;;;;;;;8.54;87.17;99098.06;4966879;28;20050;-82
2022/09/30 05:16:12;;;;;;;0.60;0.60;;;;;;;8.58;87.13;99096.56;4952019;28;20428;-82
2022/09/30 05:18:41;;;;;;;0.60;0.60;;;;;;;8.66;87.00;99090.06;4955249;28;20141;-83
2022/09/30 05:21:09;;;;;;;0.60;0.60;;;;;;;8.73;86.53;99093.44;4972396;28;20146;-82
2022/09/30 05:23:37;;;;;;;0.60;0.60;;;;;;;8.82;86.48;99099.31;4979351;28;20046;-84
2022/09/30 05:26:04;;;;;;;0.60;0.60;;;;;;;8.83;85.91;99093.69;4971227;28;20132;-84
2022/09/30 05:28:37;;;;;;;0.60;0.60;;;;;;;8.91;85.99;99114.06;4972542;28;20142;-83
2022/09/30 05:31:05;;;;;;;0.60;0.60;;;;;;;8.92;85.70;99107.66;4972477;28;20062;-83
2022/09/30 05:33:34;;;;;;;0.60;0.60;;;;;;;8.96;85.13;99108.81;4972614;28;20054;-82
2022/09/30 05:36:05;;;;;;;0.60;0.60;;;;;;;8.97;84.75;99102.41;4976591;28;20399;-82
2022/09/30 05:38:33;;;;;;;0.60;0.60;;;;;;;9.02;84.60;99099.00;4974206;28;20059;-81
2022/09/30 05:41:08;;;;;;;0.60;0.60;;;;;;;9.13;84.39;99103.56;4954198;28;20113;-82
2022/09/30 05:43:35;;;;;;;;;;;;;;;9.17;84.25;99093.19;4954528;28;20084;-82
2022/09/30 05:46:02;;;;;;;0.60;0.60;;;;;;;9.14;83.77;99094.47;4972413;28;19976;-82
2022/09/30 05:48:29;;;;;;;0.60;0.60;;;;;;;9.16;83.65;99099.59;4972930;28;20085;-82
2022/09/30 05:50:58;;;;;;;0.60;0.60;;;;;;;9.21;83.66;99102.41;4972382;28;20054;-82
2022/09/30 05:53:25;;;;;;;0.60;0.60;;;;;;;9.21;83.82;99102.41;4973000;28;20059;-83
2022/09/30 05:55:52;;;;;;;0.60;0.60;;;;;;;9.24;84.21;99100.09;4973088;28;20051;-83
2022/09/30 05:58:20;;;;;;;0.60;0.60;;;;;;;9.36;83.53;99099.25;4972184;28;20058;-81
2022/09/30 06:00:48;;;;;;;0.60;0.60;;;;;;;9.43;83.50;99099.97;4971778;28;20129;-83
2022/09/30 06:03:15;;;;;;;0.60;0.60;;;;;;;9.51;83.39;99096.91;4972312;28;20109;-83
2022/09/30 06:05:44;;;;;;;0.60;0.60;;;;;;;9.55;83.48;99098.91;4955105;28;20081;-82
2022/09/30 06:08:12;;;;;;;0.60;0.60;;;;;;;9.67;83.16;99090.81;4971725;28;20513;-82
2022/09/30 06:10:41;;;;;;;0.60;0.60;;;;;;;9.79;81.96;99082.69;4972185;28;20142;-81
2022/09/30 06:13:09;;;;;;;0.60;0.60;;;;;;;9.96;81.68;99094.38;4971986;28;20106;-84
2022/09/30 06:15:37;;;;;;;0.60;0.60;;;;;;;10.03;81.71;99098.84;4972372;28;20062;-83
2022/09/30 06:18:04;;;;;;;0.60;0.60;;;;;;;10.17;81.10;99095.59;4971856;28;20074;-83
2022/09/30 06:20:32;;;;;;;0.60;0.60;;;;;;;10.28;80.11;99099.38;4972205;28;20387;-83
2022/09/30 06:22:59;;;;;;;0.50;0.50;;;;;;;10.36;79.84;99096.28;4986655;28;20050;-82
2022/09/30 06:25:27;;;;;;;0.60;0.60;;;;;;;10.37;79.78;99099.81;4972137;28;20103;-82
2022/09/30 06:27:55;;;;;;;0.60;0.60;;;;;;;10.53;79.62;99100.91;4971535;28;20533;-82
2022/09/30 06:30:22;;;;;;;0.70;0.70;;;;;;;10.58;78.83;99096.44;4971827;28;20055;-82
2022/09/30 06:32:49;;;;;;;0.60;0.60;;;;;;;10.70;78.52;99099.06;4971465;28;20059;-83
2022/09/30 06:35:16;;;;;;;0.70;0.70;;;;;;;10.82;78.31;99091.72;4971694;28;20043;-81
2022/09/30 06:37:43;;;;;;;0.60;0.60;;;;;;;10.84;77.87;99083.38;4971837;28;20145;-83
2022/09/30 06:40:10;;;;;;;0.60;0.60;;;;;;;10.93;77.57;99086.50;4971776;28;20471;-83
2022/09/30 06:42:37;;;;;;;0.60;0.60;;;;;;;11.20;77.25;99094.75;4971721;28;20403;-83
2022/09/30 06:45:05;;;;;;;0.60;0.60;;;;;;;11.40;76.61;99086.16;4971660;28;20058;-83
2022/09/30 06:47:32;;;;;;;0.60;0.60;;;;;;;11.66;75.89;99090.84;4957515;28;20051;-84
2022/09/30 06:49:59;;;;;;;0.60;0.60;;;;;;;11.70;75.83;99091.19;4974636;28;20583;-82
2022/09/30 06:52:26;;;;;;;0.60;0.60;;;;;;;11.70;75.80;99091.19;4977692;28;20382;-82
2022/09/30 06:54:57;;;;;;;0.60;0.60;;;;;;;11.67;75.88;99092.50;4983861;28;20105;-83
2022/09/30 06:57:26;;;;;;;0.60;0.60;;;;;;;11.75;75.63;99109.31;4975375;28;20051;-83
2022/09/30 06:59:53;;;;;;;0.65;0.65;;;;;;;11.76;75.43;99103.69;4957933;28;20585;-82
2022/09/30 07:02:20;;;;;;;0.63;0.63;;;;;;;11.90;75.18;99098.75;4975829;28;20054;-81
2022/09/30 07:04:48;;;;;;;0.70;0.70;;;;;;;12.14;74.08;99096.63;4979137;28;20073;-82
2022/09/30 07:07:15;;;;;;;0.60;0.60;;;;;;;12.30;74.08;99101.13;4982202;28;20550;-81
2022/09/30 07:09:42;;;;;;;0.70;0.70;;;;;;;12.41;73.32;99109.41;4972251;28;20069;-82
2022/09/30 07:12:09;;;;;;;0.60;0.60;;;;;;;12.34;73.87;99096.84;4972971;28;20513;-81
2022/09/30 07:14:36;;;;;;;0.60;0.60;;;;;;;12.31;73.67;99105.50;4977655;28;20530;-82
2022/09/30 07:17:05;;;;;;;0.60;0.60;;;;;;;12.35;73.94;99106.59;4962608;28;20077;-81
2022/09/30 07:19:33;;;;;;;0.60;0.60;;;;;;;12.39;73.67;99109.63;4972531;28;20046;-82
2022/09/30 07:24:46;;;;;;;0.60;0.60;;;;;;;12.86;73.41;99098.19;4975502;28;20051;-83
2022/09/30 07:27:13;;;;;;;0.60;0.60;;;;;;;13.08;72.85;99100.81;4983521;28;20128;-79
2022/09/30 07:29:40;;;;;;;0.60;0.60;;;;;;;13.32;72.29;99106.75;4972931;28;20055;-81
2022/09/30 07:32:29;;;;;;;0.60;0.60;;;;;;;13.58;71.08;99105.00;4972070;28;20058;-82
2022/09/30 07:34:57;;;;;;;0.60;0.60;;;;;;;13.56;71.02;99114.47;4970840;28;20047;-85
2022/09/30 07:37:34;;;;;;;0.50;0.50;;;;;;;13.34;71.34;99107.28;4976101;28;20057;-82
2022/09/30 07:40:06;;;;;;;0.50;0.50;;;;;;;13.20;71.90;99103.34;4971760;28;20509;-82
2022/09/30 07:42:37;;;;;;;0.50;0.50;;;;;;;13.20;72.07;99108.78;4973642;28;20054;-84
2022/09/30 07:45:04;;;;;;;0.52;0.52;;;;;;;13.18;72.34;99106.31;4976441;28;20078;-82
2022/09/30 07:47:31;;;;;;;0.60;0.60;;;;;;;13.14;72.43;99102.50;4977861;28;20373;-84
2022/09/30 07:49:59;;;;;;;0.60;0.60;;;;;;;13.39;72.45;99110.03;4966143;28;20074;-83
2022/09/30 07:52:26;;;;;;;0.60;0.60;;;;;;;13.66;71.46;99106.41;4972706;28;20047;-82
2022/09/30 07:54:53;;;;;;;0.55;0.55;;;;;;;14.02;70.28;99109.31;4972107;28;20521;-82
2022/09/30 07:57:20;;;;;;;0.50;0.50;;;;;;;14.23;69.48;99119.19;4967157;28;20133;-81
2022/09/30 07:59:47;;;;;;;0.50;0.50;;;;;;;14.26;69.47;99117.84;4973921;28;20461;-88
2022/09/30 08:02:16;;;;;;;0.52;0.52;;;;;;;14.36;69.32;99122.50;4956324;28;20050;-82
2022/09/30 08:04:44;;;;;;;0.50;0.50;;;;;;;14.38;69.33;99117.59;4973041;28;20347;-83
2022/09/30 08:07:13;;;;;;;0.57;0.57;;;;;;;14.36;69.46;99120.59;4974874;28;20051;-82
2022/09/30 08:09:40;;;;;;;0.60;0.60;;;;;;;14.32;69.73;99100.47;4973151;28;20114;-82
2022/09/30 08:12:08;;;;;;;0.50;0.50;;;;;;;14.35;69.62;99110.78;4977787;28;20114;-85
2022/09/30 08:14:35;;;;;;;0.50;0.50;;;;;;;14.39;69.35;99108.38;4973758;28;20062;-83
2022/09/30 08:17:01;;;;;;;0.50;0.50;;;;;;;14.52;69.32;99113.28;4985950;28;20124;-83
2022/09/30 08:19:29;;;;;;;0.60;0.60;;;;;;;14.61;68.89;99105.44;4991916;28;20108;-84
2022/09/30 08:21:57;;;;;;;0.52;0.52;;;;;;;14.58;69.48;99103.28;4991609;28;20070;-82
2022/09/30 08:24:25;;;;;;;0.50;0.50;;;;;;;14.50;69.41;99101.88;4992567;28;20539;-83
2022/09/30 08:26:53;;;;;;;0.50;0.50;;;;;;;14.48;69.75;99101.31;4992533;28;20100;-83
2022/09/30 08:29:20;;;;;;;0.50;0.50;;;;;;;14.62;69.67;99098.97;4992640;28;20046;-83
2022/09/30 08:32:07;;;;;;;0.60;0.60;;;;;;;14.80;69.35;99103.06;4992730;28;20065;-83
2022/09/30 08:34:34;;;;;;;0.50;0.50;;;;;;;14.87;69.19;99098.19;4992469;28;20153;-83
2022/09/30 08:37:02;;;;;;;0.55;0.55;;;;;;;14.95;69.18;99090.28;4992604;28;20061;-82
2022/09/30 08:39:36;;;;;;;0.50;0.50;;;;;;;15.07;69.04;99083.78;4992566;28;20050;-82
2022/09/30 08:42:15;;;;;;;0.60;0.60;;;;;;;15.35;68.54;99093.28;4991251;28;20285;-85
2022/09/30 08:45:14;;;;;;;0.50;0.50;;;;;;;15.56;67.77;99084.00;4991015;28;20422;-83
2022/09/30 08:48:13;;;;;;;0.60;0.60;;;;;;;15.77;66.85;99086.69;4992706;28;20501;-82
2022/09/30 08:50:51;;;;;;;0.70;0.70;;;;;;;16.20;66.11;99082.47;4951092;29;20411;-83
2022/09/30 08:53:30;;;;;;;0.60;0.60;;;;;;;17.01;63.84;99087.69;4951694;29;20083;-82
2022/09/30 08:56:01;;;;;;;0.60;0.60;;;;;;;17.21;62.49;99082.06;4952820;28;20051;-83
2022/09/30 08:58:31;;;;;;;0.60;0.60;;;;;;;16.94;62.97;99079.84;4951296;29;20059;-83
2022/09/30 09:01:06;;;;;;;0.50;0.50;;;;;;;16.59;64.29;99075.44;4935523;29;20058;-83
2022/09/30 09:03:34;;;;;;;0.50;0.50;;;;;;;16.40;64.90;99067.91;4920005;29;20552;-83
2022/09/30 09:06:21;;;;;;;0.50;0.50;;;;;;;16.45;65.50;99075.25;4953671;29;20058;-84
2022/09/30 09:08:52;;;;;;;0.40;0.40;;;;;;;16.52;65.42;99073.03;4934330;29;20143;-82
2022/09/30 09:12:02;;;;;;;0.50;0.50;;;;;;;16.38;65.78;99070.13;4951333;29;20538;-85
2022/09/30 09:14:48;;;;;;;0.40;0.40;;;;;;;16.21;65.84;99067.75;4943205;29;20576;-84
2022/09/30 09:17:24;;;;;;;0.50;0.50;;;;;;;16.12;66.37;99065.88;4951807;29;20058;-82
2022/09/30 09:20:15;;;;;;;0.47;0.47;;;;;;;16.06;66.94;99064.28;4951327;29;20065;-83
2022/09/30 09:22:43;;;;;;;0.50;0.50;;;;;;;15.98;66.82;99062.97;4951086;29;20062;-84
2022/09/30 09:25:16;;;;;;;0.45;0.45;;;;;;;15.83;67.30;99063.81;4934700;29;20062;-83
2022/09/30 09:28:03;;;;;;;0.50;0.50;;;;;;;15.88;67.51;99071.97;4981711;28;20053;-83
2022/09/30 09:30:38;;;;;;;0.50;0.50;;;;;;;15.76;67.86;99077.72;4992215;28;20050;-83
2022/09/30 09:33:22;;;;;;;0.40;0.40;;;;;;;15.56;68.71;99077.75;4992013;28;20951;-82
2022/09/30 09:36:34;;;;;;;0.47;0.47;;;;;;;15.53;69.47;99065.50;4990621;28;20058;-82
2022/09/30 09:39:26;;;;;;;0.50;0.50;;;;;;;15.63;69.55;99077.47;4976489;28;20273;-83
2022/09/30 09:42:06;;;;;;;0.50;0.50;;;;;;;15.78;69.06;99078.25;4991486;28;20501;-83
2022/09/30 09:44:33;;;;;;;0.50;0.50;;;;;;;15.68;68.69;99074.72;4991590;28;20054;-84
2022/09/30 09:47:04;;;;;;;0.50;0.50;;;;;;;15.65;69.06;99086.97;4991423;28;20528;-83
2022/09/30 09:49:36;;;;;;;0.50;0.50;;;;;;;15.61;69.65;99091.31;4990612;28;20515;-85
2022/09/30 09:52:13;;;;;;;0.40;0.40;;;;;;;15.56;70.07;99088.63;4991926;28;20050;-83
2022/09/30 09:54:46;;;;;;;0.50;0.50;;;;;;;15.56;69.91;99077.75;4993434;28;20058;-83
2022/09/30 09:57:30;;;;;;;0.50;0.50;;;;;;;15.76;70.17;99091.31;4990777;28;20417;-82
2022/09/30 09:59:58;;;;;;;0.50;0.50;;;;;;;16.03;69.13;99082.81;4965371;28;20085;-83
2022/09/30 10:02:28;;;;;;;0.50;0.50;;;;;;;16.30;67.98;99097.09;4956388;28;20492;-83
2022/09/30 10:05:03;;;;;;;0.50;0.50;;;;;;;16.90;65.67;99095.94;4971592;28;20413;-82
2022/09/30 10:07:33;;;;;;;0.50;0.50;;;;;;;16.68;65.94;99088.19;4986564;28;20051;-84
2022/09/30 10:10:15;;;;;;;0.60;0.60;;;;;;;16.33;66.69;99078.31;4957957;28;20055;-83
2022/09/30 10:12:49;;;;;;;0.45;0.45;;;;;;;16.53;66.07;99071.09;4958925;28;20470;-84
2022/09/30 10:15:25;;;;;;;0.40;0.40;;;;;;;16.29;66.87;99068.25;4970640;28;20055;-84
2022/09/30 10:17:54;;;;;;;0.50;0.50;;;;;;;16.29;67.50;99084.59;4971376;28;20089;-84
2022/09/30 10:20:24;;;;;;;0.50;0.50;;;;;;;16.23;68.08;99078.38;4975657;28;20524;-85
2022/09/30 10:22:59;;;;;;;0.50;0.50;;;;;;;16.19;68.65;99080.81;4984436;28;20054;-84
2022/09/30 10:25:26;;;;;;;0.40;0.40;;;;;;;16.16;68.49;99089.56;4975705;28;20141;-86
2022/09/30 10:28:21;;;;;;;0.50;0.50;;;;;;;15.95;68.58;99086.09;4959274;28;20046;-86
2022/09/30 10:30:53;;;;;;;0.50;0.50;;;;;;;15.86;69.34;99090.47;4960432;28;20070;-85
2022/09/30 10:33:30;;;;;;;0.50;0.50;;;;;;;15.88;69.73;99084.78;4976940;28;20357;-83
2022/09/30 10:36:02;;;;;;;0.40;0.40;;;;;;;15.81;69.59;99085.88;4974053;28;20529;-86
2022/09/30 10:38:30;;;;;;;0.50;0.50;;;;;;;15.76;70.03;99077.72;4975277;28;20501;-85
2022/09/30 10:40:58;;;;;;;0.40;0.40;;;;;;;15.78;70.10;99070.09;4983916;28;20085;-83
2022/09/30 10:43:41;;;;;;;0.40;0.40;;;;;;;15.92;69.73;99074.94;4977751;28;20058;-84
2022/09/30 10:46:08;;;;;;;0.40;0.40;;;;;;;15.96;68.84;99085.00;4617893;28;10000479;-84
2022/09/30 10:48:54;;;;;;;0.50;0.50;;;;;;;16.22;68.46;99076.72;4992320;28;20092;-84
2022/09/30 10:51:33;;;;;;;0.52;0.52;;;;;;;16.63;67.51;99074.56;4967320;28;20054;-85
2022/09/30 10:54:01;;;;;;;1.00;1.00;;;;;;;18.46;62.66;99080.41;4954436;28;20090;-84
2022/09/30 10:56:41;;;;;;;0.70;0.70;;;;;;;19.58;57.66;99078.66;4955611;28;20059;-83
2022/09/30 10:59:44;;;;;;;0.40;0.40;;;;;;;18.34;59.79;99078.94;4974037;28;20337;-81
2022/09/30 11:02:15;;;;;;;0.50;0.50;;;;;;;17.69;62.12;99073.16;4880113;29;20051;-83
2022/09/30 11:04:47;;;;;;;0.50;0.50;;;;;;;17.53;63.02;99064.31;4896014;29;20056;-83
2022/09/30 11:07:25;;;;;;;0.50;0.50;;;;;;;17.55;62.88;99067.59;4878750;29;20056;-83
2022/09/30 11:10:00;;;;;;;0.60;0.60;;;;;;;17.81;62.45;99070.06;4888379;29;20056;-83
2022/09/30 11:12:38;;;;;;;0.80;0.80;;;;;;;19.26;58.68;99063.06;4890905;29;20048;-83
2022/09/30 11:15:27;;;;;;;0.90;0.90;;;;;;;21.61;53.11;99066.16;4879947;29;20127;-84
2022/09/30 11:17:54;;;;;;;0.40;0.40;;;;;;;21.79;51.78;99069.78;4883670;29;20161;-83
2022/09/30 11:20:28;;;;;;;0.60;0.60;;;;;;;21.39;51.92;99068.97;4864673;29;20049;-82
2022/09/30 11:23:17;;;;;;;0.40;0.40;;;;;;;21.66;51.10;99069.91;4895999;29;20539;-83
2022/09/30 11:26:28;;;;;;;0.30;0.30;;;;;;;20.10;55.47;99062.03;4881776;29;20053;-83
2022/09/30 11:29:31;;;;;;;0.30;0.30;;;;;;;18.74;57.82;99065.00;4888779;29;20056;-84
2022/09/30 11:32:04;;;;;;;0.30;0.30;;;;;;;17.91;60.98;99080.88;4895141;29;20556;-84
2022/09/30 11:34:49;;;;;;;0.30;0.30;;;;;;;17.48;62.72;99078.81;4880169;29;20055;-84
2022/09/30 11:38:00;;;;;;;0.30;0.30;;;;;;;17.36;63.27;99085.78;4974601;28;20528;-83
2022/09/30 11:40:37;;;;;;;0.40;0.40;;;;;;;17.15;64.06;99083.22;4964125;28;20079;-83
2022/09/30 11:43:18;;;;;;;0.40;0.40;;;;;;;17.15;64.67;99085.16;4968795;28;20318;-83
2022/09/30 11:45:55;;;;;;;0.40;0.40;;;;;;;17.20;64.32;99087.81;4972478;28;20051;-83
2022/09/30 11:48:39;;;;;;;0.40;0.40;;;;;;;17.28;64.06;99092.66;4968167;28;20116;-83
2022/09/30 11:51:42;;;;;;;0.40;0.40;;;;;;;17.31;64.46;99083.91;4956356;28;20089;-83
2022/09/30 11:54:27;;;;;;;0.40;0.40;;;;;;;17.19;64.41;99070.66;4972997;28;20502;-82
2022/09/30 11:57:17;;;;;;;0.40;0.40;;;;;;;17.03;65.16;99099.94;4990336;28;20504;-83
2022/09/30 11:59:50;;;;;;;0.40;0.40;;;;;;;16.90;65.68;99089.69;4959584;28;20050;-82
2022/09/30 12:02:49;;;;;;;0.43;0.43;;;;;;;17.03;65.51;99097.22;4957236;28;20077;-83
2022/09/30 12:05:24;;;;;;;0.60;0.60;;;;;;;17.68;63.70;99096.91;4958502;28;20066;-83
2022/09/30 12:07:57;;;;;;;0.90;0.90;;;;;;;19.60;58.35;99105.72;4982812;28;20501;-84
2022/09/30 12:10:32;;;;;;;0.40;0.40;;;;;;;19.11;58.92;99090.69;4959768;28;20051;-83
2022/09/30 12:13:03;;;;;;;0.40;0.40;;;;;;;18.34;61.48;99097.25;4973219;28;20125;-83